Omaha, Georgia
Current Conditions -  °F | °C
As of 3:58 AM on Monday 22 Dec 2014 (Local Time) from KLSF Reporting Station
Overcast Overcast  
Wind Chill: 49°   Ceiling: 600
Heat Index: 49°   Visibility: 10mi
Dew Point: 48°   Wind: 2mph
Humidity: 96%   Direction: 80°E
Pressure: 30.01"   Gusts: NA
Location:  32.15°N, 85.01°W
Report Text: KLSF 220858Z AUTO 08002KT 10SM OVC006 09/09 A3001 RMK AO2 SLP165 60001 T00940088 57010
Loading
Personal Weather Stations






























Interactive Weather Map New forecast layout! Learn more

10-Day Weather Forecast

Advertisements
Track Severe Weather on mobile